createdAt,value
2019-06-01T00:04:20.433Z,99.50
2019-06-01T00:06:49.447Z,99.50
2019-06-01T00:09:18.652Z,99.70
2019-06-01T00:11:47.688Z,99.70
2019-06-01T00:14:17.105Z,99.80
2019-06-01T00:16:46.319Z,99.90
2019-06-01T00:19:15.400Z,99.90
2019-06-01T00:21:45.421Z,99.90
2019-06-01T00:24:15.322Z,99.90
2019-06-01T00:26:45.759Z,99.90
2019-06-01T00:29:14.961Z,99.90
2019-06-01T00:31:45.182Z,99.90
2019-06-01T00:34:14.260Z,99.90
2019-06-01T00:36:43.512Z,99.90
2019-06-01T00:39:12.631Z,99.90
2019-06-01T00:41:42.011Z,99.90
2019-06-01T00:44:11.011Z,99.90
2019-06-01T00:46:40.090Z,99.90
2019-06-01T00:49:09.515Z,99.90
2019-06-01T00:51:38.430Z,99.90
2019-06-01T00:54:07.399Z,99.90
2019-06-01T00:56:36.395Z,99.90
2019-06-01T00:59:05.842Z,99.90
2019-06-01T01:01:34.786Z,99.90
2019-06-01T01:04:03.761Z,99.90
2019-06-01T01:06:32.887Z,99.90
2019-06-01T01:09:02.294Z,99.90
2019-06-01T01:11:31.252Z,99.90
2019-06-01T01:14:00.339Z,99.90
2019-06-01T01:16:29.337Z,99.90
2019-06-01T01:18:58.451Z,99.90
2019-06-01T01:21:27.553Z,99.90
2019-06-01T01:23:56.761Z,99.90
2019-06-01T01:26:26.064Z,99.90
2019-06-01T01:28:55.106Z,99.90
2019-06-01T01:31:24.728Z,99.90
2019-06-01T01:33:53.739Z,99.90
2019-06-01T01:36:22.806Z,99.90
2019-06-01T01:38:52.217Z,99.90
2019-06-01T01:41:21.554Z,99.90
2019-06-01T01:43:50.631Z,99.90
2019-06-01T01:46:19.610Z,99.90
2019-06-01T01:48:49.818Z,99.90
2019-06-01T01:51:19.524Z,99.90
2019-06-01T01:53:48.770Z,99.90
2019-06-01T01:56:18.073Z,99.90
2019-06-01T01:58:47.116Z,99.90
2019-06-01T02:01:22.558Z,99.90
2019-06-01T02:03:46.796Z,99.90
2019-06-01T02:06:15.855Z,99.90
2019-06-01T02:08:44.939Z,99.90
2019-06-01T02:11:14.137Z,99.90
2019-06-01T02:13:43.067Z,99.90
2019-06-01T02:16:12.115Z,99.90
2019-06-01T02:18:41.165Z,99.90
2019-06-01T02:21:11.113Z,99.90
2019-06-01T02:23:40.088Z,99.90
2019-06-01T02:26:09.057Z,99.90
2019-06-01T02:28:37.990Z,99.90
2019-06-01T02:31:06.947Z,99.90
2019-06-01T02:33:36.846Z,99.90
2019-06-01T02:36:05.865Z,99.90
2019-06-01T02:38:34.781Z,99.90
2019-06-01T02:41:05.720Z,99.90
2019-06-01T02:43:34.600Z,99.90
2019-06-01T02:46:05.510Z,99.90
2019-06-01T02:48:34.687Z,99.90
2019-06-01T02:51:04.057Z,99.90
2019-06-01T02:53:33.166Z,99.90
2019-06-01T02:56:02.371Z,99.90
2019-06-01T02:58:31.382Z,99.90
2019-06-01T03:01:25.823Z,99.90
2019-06-01T03:03:57.431Z,99.90
2019-06-01T03:06:29.093Z,99.90
2019-06-01T03:08:59.976Z,99.90
2019-06-01T03:11:32.570Z,99.90
2019-06-01T03:14:04.528Z,99.90
2019-06-01T03:16:35.427Z,99.90
2019-06-01T03:19:05.897Z,99.90
2019-06-01T03:21:36.002Z,99.90
2019-06-01T03:24:08.346Z,99.90
2019-06-01T03:26:44.186Z,99.90
2019-06-01T03:29:21.052Z,99.90
2019-06-01T03:31:50.592Z,99.90
2019-06-01T03:34:20.110Z,99.90
2019-06-01T03:36:49.141Z,99.90
2019-06-01T03:39:18.630Z,99.90
2019-06-01T03:41:47.553Z,99.90
2019-06-01T03:44:16.651Z,99.90
2019-06-01T03:46:45.754Z,99.90
2019-06-01T03:49:14.798Z,99.90
2019-06-01T03:51:43.757Z,99.90
2019-06-01T03:54:13.236Z,99.90
2019-06-01T03:56:42.660Z,99.90
2019-06-01T03:59:12.921Z,99.90
2019-06-01T04:01:42.164Z,99.90
2019-06-01T04:04:11.310Z,99.90
2019-06-01T04:06:40.709Z,99.90
2019-06-01T04:09:10.091Z,99.90
2019-06-01T04:11:39.035Z,99.90
2019-06-01T04:14:08.074Z,99.90
2019-06-01T04:16:37.239Z,99.90
2019-06-01T04:19:06.317Z,99.90
2019-06-01T04:21:38.405Z,99.90
2019-06-01T04:24:08.053Z,99.90
2019-06-01T04:26:37.629Z,99.90
2019-06-01T04:29:06.719Z,99.90
2019-06-01T04:31:35.749Z,99.90
2019-06-01T04:34:04.883Z,99.90
2019-06-01T04:36:34.072Z,99.90
2019-06-01T04:39:03.744Z,99.90
2019-06-01T04:41:32.926Z,99.90
2019-06-01T04:44:02.259Z,99.90
2019-06-01T04:46:31.265Z,99.90
2019-06-01T04:49:00.328Z,99.90
2019-06-01T04:51:29.875Z,99.90
2019-06-01T04:53:59.009Z,99.90
2019-06-01T04:56:28.102Z,99.90
2019-06-01T04:58:57.089Z,99.90
2019-06-01T05:01:26.114Z,99.90
2019-06-01T05:03:55.342Z,99.90
2019-06-01T05:06:24.831Z,99.90
2019-06-01T05:08:53.786Z,99.90
2019-06-01T05:11:22.781Z,99.90
2019-06-01T05:13:51.728Z,99.90
2019-06-01T05:16:20.676Z,99.90
2019-06-01T05:18:50.164Z,99.90
2019-06-01T05:21:19.193Z,99.90
2019-06-01T05:23:48.366Z,99.90
2019-06-01T05:26:17.308Z,99.90
2019-06-01T05:28:46.446Z,99.90
2019-06-01T05:31:24.272Z,99.90
2019-06-01T05:33:46.581Z,99.90
2019-06-01T05:36:16.259Z,99.90
2019-06-01T05:38:45.701Z,99.90
2019-06-01T05:41:15.027Z,99.90
2019-06-01T05:43:44.335Z,99.90
2019-06-01T05:46:14.046Z,99.90
2019-06-01T05:48:43.265Z,99.90
2019-06-01T05:51:13.794Z,99.90
2019-06-01T05:53:43.101Z,99.90
2019-06-01T05:56:12.684Z,99.90
2019-06-01T05:58:41.757Z,99.90
2019-06-01T06:01:12.318Z,99.90
2019-06-01T06:03:41.668Z,99.90
2019-06-01T06:06:11.713Z,99.90
2019-06-01T06:08:40.692Z,99.90
2019-06-01T06:11:10.740Z,98.90
2019-06-01T06:13:59.280Z,98.60
2019-06-01T06:16:28.358Z,98.70
2019-06-01T06:18:57.333Z,99.00
2019-06-01T06:21:26.296Z,99.10
2019-06-01T06:23:55.209Z,99.30
2019-06-01T06:26:24.194Z,99.80
2019-06-01T06:28:53.389Z,99.90
2019-06-01T06:31:23.286Z,99.90
2019-06-01T06:33:56.699Z,99.90
2019-06-01T06:36:23.826Z,99.90
2019-06-01T06:38:52.707Z,99.90
2019-06-01T06:41:22.338Z,99.90
2019-06-01T06:43:51.757Z,99.90
2019-06-01T06:46:21.092Z,99.90
2019-06-01T06:48:49.982Z,99.90
2019-06-01T06:51:19.381Z,99.90
2019-06-01T06:53:48.472Z,99.90
2019-06-01T06:56:17.900Z,99.90
2019-06-01T06:58:46.964Z,99.90
2019-06-01T07:01:16.963Z,99.90
2019-06-01T07:03:46.024Z,99.90
2019-06-01T07:06:15.093Z,99.90
2019-06-01T07:08:44.350Z,99.90
2019-06-01T07:11:13.324Z,99.90
2019-06-01T07:13:43.800Z,99.90
2019-06-01T07:16:12.921Z,99.90
2019-06-01T07:18:41.915Z,99.90
2019-06-01T07:21:10.927Z,99.90
2019-06-01T07:23:40.061Z,99.90
2019-06-01T07:26:09.008Z,98.80
2019-06-01T07:28:38.070Z,98.10
2019-06-01T07:31:07.090Z,97.90
2019-06-01T07:33:36.317Z,97.80
2019-06-01T07:36:05.380Z,98.00
2019-06-01T07:38:34.328Z,97.80
2019-06-01T07:41:03.383Z,97.70
2019-06-01T07:43:33.275Z,97.80
2019-06-01T07:46:02.590Z,97.70
2019-06-01T07:48:31.562Z,97.70
2019-06-01T07:51:00.445Z,97.70
2019-06-01T07:53:29.623Z,97.40
2019-06-01T07:55:58.702Z,97.20
2019-06-01T07:58:28.799Z,96.70
2019-06-01T08:00:58.034Z,94.60
2019-06-01T08:03:29.479Z,92.00
2019-06-01T08:05:57.752Z,91.00
2019-06-01T08:08:27.326Z,90.90
2019-06-01T08:10:56.455Z,91.00
2019-06-01T08:13:27.815Z,85.20
2019-06-01T08:15:56.447Z,70.80
2019-06-01T08:18:25.990Z,51.40
2019-06-01T08:20:55.049Z,45.60
2019-06-01T08:23:24.340Z,42.70
2019-06-01T08:25:53.408Z,39.60
2019-06-01T08:28:22.529Z,36.70
2019-06-01T08:30:51.537Z,34.20
2019-06-01T08:33:20.617Z,32.20
2019-06-01T08:35:49.766Z,30.80
2019-06-01T08:38:18.795Z,30.00
2019-06-01T08:40:47.730Z,29.70
2019-06-01T08:43:16.771Z,29.30
2019-06-01T08:45:45.760Z,28.80
2019-06-01T08:48:14.824Z,28.50
2019-06-01T08:50:46.235Z,28.40
2019-06-01T08:53:14.636Z,28.30
2019-06-01T08:55:43.637Z,28.40
2019-06-01T08:58:12.497Z,28.40
2019-06-01T09:00:41.525Z,28.30
2019-06-01T09:03:10.963Z,28.50
2019-06-01T09:05:40.140Z,29.10
2019-06-01T09:08:12.413Z,30.70
2019-06-01T09:10:41.475Z,33.50
2019-06-01T09:13:10.701Z,36.00
2019-06-01T09:15:39.794Z,38.80
2019-06-01T09:18:08.765Z,41.60
2019-06-01T09:20:38.994Z,43.70
2019-06-01T09:23:08.208Z,44.80
2019-06-01T09:25:37.240Z,48.00
2019-06-01T09:28:06.217Z,49.70
2019-06-01T09:30:36.286Z,50.00
2019-06-01T09:33:05.416Z,50.40
2019-06-01T09:35:52.683Z,50.90
2019-06-01T09:38:06.138Z,51.20
2019-06-01T09:40:35.308Z,51.50
2019-06-01T09:43:04.308Z,51.70
2019-06-01T09:45:34.565Z,51.50
2019-06-01T09:48:03.805Z,51.00
2019-06-01T09:50:33.399Z,51.40
2019-06-01T09:53:02.586Z,51.80
2019-06-01T09:55:32.659Z,51.80
2019-06-01T09:58:02.466Z,51.90
2019-06-01T10:00:32.373Z,51.80
2019-06-01T10:03:01.914Z,51.30
2019-06-01T10:05:32.300Z,51.80
2019-06-01T10:08:01.706Z,52.70
2019-06-01T10:10:31.877Z,52.60
2019-06-01T10:13:00.951Z,52.50
2019-06-01T10:15:30.224Z,52.00
2019-06-01T10:17:59.241Z,51.50
2019-06-01T10:20:28.098Z,51.30
2019-06-01T10:22:57.088Z,51.10
2019-06-01T10:25:26.342Z,51.20
2019-06-01T10:27:58.339Z,51.60
2019-06-01T10:30:27.364Z,50.10
2019-06-01T10:32:56.455Z,50.60
2019-06-01T10:35:25.468Z,50.70
2019-06-01T10:37:54.662Z,50.70
2019-06-01T10:40:23.708Z,50.60
2019-06-01T10:42:53.191Z,50.50
2019-06-01T10:45:22.501Z,50.50
2019-06-01T10:47:51.869Z,50.20
2019-06-01T10:50:20.879Z,50.60
2019-06-01T10:52:49.955Z,51.40
2019-06-01T10:55:19.163Z,52.20
2019-06-01T10:57:48.157Z,52.50
2019-06-01T11:00:17.355Z,52.50
2019-06-01T11:02:46.563Z,53.20
2019-06-01T11:05:15.641Z,52.90
2019-06-01T11:07:44.619Z,52.50
2019-06-01T11:10:13.954Z,52.40
2019-06-01T11:12:43.299Z,52.30
2019-06-01T11:15:12.846Z,52.60
2019-06-01T11:17:43.145Z,52.90
2019-06-01T11:20:12.766Z,53.20
2019-06-01T11:22:42.023Z,52.80
2019-06-01T11:25:11.331Z,52.20
2019-06-01T11:27:41.818Z,52.00
2019-06-01T11:30:11.346Z,52.00
2019-06-01T11:32:41.914Z,51.90
2019-06-01T11:35:11.233Z,51.80
2019-06-01T11:37:40.578Z,51.60
2019-06-01T11:40:10.038Z,50.80
2019-06-01T11:42:39.170Z,50.60
2019-06-01T11:45:09.671Z,51.00
2019-06-01T11:47:38.965Z,51.10
2019-06-01T11:50:08.427Z,51.80
2019-06-01T11:52:39.064Z,52.10
2019-06-01T11:55:08.842Z,51.70
2019-06-01T11:57:39.341Z,51.50
2019-06-01T12:00:10.383Z,51.40
2019-06-01T12:02:39.736Z,50.20
2019-06-01T12:05:09.589Z,50.00
2019-06-01T12:07:39.872Z,50.80
2019-06-01T12:10:10.020Z,51.10
2019-06-01T12:12:40.164Z,50.90
2019-06-01T12:15:09.849Z,51.10
2019-06-01T12:17:38.957Z,50.90
2019-06-01T12:20:11.578Z,50.70
2019-06-01T12:22:40.879Z,50.60
2019-06-01T12:25:11.491Z,50.50
2019-06-01T12:27:42.158Z,50.60
2019-06-01T12:30:12.130Z,50.40
2019-06-01T12:32:42.003Z,50.40
2019-06-01T12:35:11.828Z,50.70
2019-06-01T12:38:02.050Z,50.60
2019-06-01T12:40:15.646Z,50.70
2019-06-01T12:42:45.976Z,50.60
2019-06-01T12:45:22.478Z,50.70
2019-06-01T12:47:54.367Z,50.90
2019-06-01T12:50:19.842Z,51.40
2019-06-01T12:52:48.943Z,51.90
2019-06-01T12:55:25.091Z,51.60
2019-06-01T12:57:54.141Z,51.70
2019-06-01T13:00:23.374Z,52.00
2019-06-01T13:03:05.988Z,52.70
2019-06-01T13:05:26.229Z,52.10
2019-06-01T13:08:02.323Z,52.10
2019-06-01T13:10:26.437Z,51.60
2019-06-01T13:12:55.732Z,50.90
2019-06-01T13:15:24.872Z,50.20
2019-06-01T13:17:53.833Z,50.10
2019-06-01T13:20:23.837Z,50.60
2019-06-01T13:22:53.255Z,50.80
2019-06-01T13:25:22.677Z,51.70
2019-06-01T13:27:53.686Z,52.30
2019-06-01T13:30:22.810Z,52.00
2019-06-01T13:32:52.754Z,52.00
2019-06-01T13:35:22.470Z,52.60
2019-06-01T13:38:07.926Z,52.80
2019-06-01T13:40:22.744Z,52.60
2019-06-01T13:42:53.139Z,52.50
2019-06-01T13:45:22.693Z,52.30
2019-06-01T13:47:51.920Z,52.50
2019-06-01T13:50:21.061Z,52.10
2019-06-01T13:52:50.205Z,52.40
2019-06-01T13:55:33.509Z,52.40
2019-06-01T13:58:02.687Z,52.30
2019-06-01T14:00:31.909Z,52.30
2019-06-01T14:03:02.623Z,52.30
2019-06-01T14:05:32.145Z,52.30
2019-06-01T14:08:01.365Z,52.60
2019-06-01T14:10:30.357Z,53.40
2019-06-01T14:12:59.734Z,53.60
2019-06-01T14:15:29.042Z,53.60
2019-06-01T14:17:58.507Z,53.70
2019-06-01T14:20:27.923Z,53.30
2019-06-01T14:22:57.063Z,53.20
2019-06-01T14:25:26.227Z,53.20
2019-06-01T14:27:56.446Z,52.90
2019-06-01T14:30:25.677Z,53.30
2019-06-01T14:32:56.905Z,53.50
2019-06-01T14:35:26.331Z,53.40
2019-06-01T14:37:56.902Z,53.20
2019-06-01T14:40:26.054Z,53.00
2019-06-01T14:42:55.688Z,53.00
2019-06-01T14:45:25.356Z,53.20
2019-06-01T14:47:55.697Z,53.30
2019-06-01T14:50:24.767Z,53.00
2019-06-01T14:52:54.035Z,53.10
2019-06-01T14:55:23.076Z,53.40
2019-06-01T14:57:52.488Z,52.60
2019-06-01T15:00:22.316Z,52.90
2019-06-01T15:02:52.162Z,52.70
2019-06-01T15:05:21.225Z,52.30
2019-06-01T15:07:50.415Z,52.40
2019-06-01T15:10:19.550Z,52.80
2019-06-01T15:12:52.693Z,52.40
2019-06-01T15:15:19.578Z,52.80
2019-06-01T15:17:49.281Z,52.80
2019-06-01T15:20:18.673Z,52.90
2019-06-01T15:22:50.417Z,52.90
2019-06-01T15:25:19.497Z,52.90
2019-06-01T15:27:48.414Z,52.80
2019-06-01T15:30:17.787Z,52.80
2019-06-01T15:32:46.694Z,52.70
2019-06-01T15:35:15.833Z,52.70
2019-06-01T15:37:44.794Z,52.80
2019-06-01T15:40:14.983Z,53.40
2019-06-01T15:42:43.987Z,53.50
2019-06-01T15:45:14.249Z,53.50
2019-06-01T15:47:43.466Z,53.60
2019-06-01T15:50:13.329Z,53.50
2019-06-01T15:52:45.440Z,53.40
2019-06-01T15:55:14.788Z,53.30
2019-06-01T15:57:44.227Z,53.30
2019-06-01T16:00:14.100Z,53.30
2019-06-01T16:02:43.000Z,53.30
2019-06-01T16:05:13.265Z,53.50
2019-06-01T16:07:42.143Z,53.20
2019-06-01T16:10:11.702Z,53.40
2019-06-01T16:12:40.693Z,53.30
2019-06-01T16:15:10.787Z,53.30
2019-06-01T16:17:39.815Z,53.90
2019-06-01T16:20:10.129Z,53.10
2019-06-01T16:22:39.234Z,53.50
2019-06-01T16:25:08.898Z,53.40
2019-06-01T16:27:38.406Z,53.40
2019-06-01T16:30:08.796Z,53.40
2019-06-01T16:32:39.599Z,53.50
2019-06-01T16:35:09.050Z,53.80
2019-06-01T16:37:38.147Z,53.80
2019-06-01T16:40:10.312Z,53.90
2019-06-01T16:42:39.067Z,53.90
2019-06-01T16:45:08.804Z,54.00
2019-06-01T16:47:37.742Z,54.10
2019-06-01T16:50:07.837Z,54.40
2019-06-01T16:52:36.860Z,54.70
2019-06-01T16:55:07.123Z,55.10
2019-06-01T16:57:36.538Z,55.10
2019-06-01T17:00:08.110Z,54.90
2019-06-01T17:02:37.231Z,54.70
2019-06-01T17:05:07.165Z,54.40
2019-06-01T17:07:36.560Z,54.50
2019-06-01T17:10:21.671Z,54.60
2019-06-01T17:12:36.846Z,55.30
2019-06-01T17:15:07.063Z,54.70
2019-06-01T17:17:36.148Z,54.80
2019-06-01T17:20:05.508Z,54.80
2019-06-01T17:22:34.628Z,55.10
2019-06-01T17:25:04.391Z,55.10
2019-06-01T17:27:33.668Z,55.20
2019-06-01T17:30:06.895Z,55.20
2019-06-01T17:32:33.719Z,55.40
2019-06-01T17:35:03.264Z,55.50
2019-06-01T17:37:32.781Z,55.60
2019-06-01T17:40:02.647Z,56.10
2019-06-01T17:42:31.956Z,56.10
2019-06-01T17:45:03.680Z,56.30
2019-06-01T17:47:32.201Z,56.00
2019-06-01T17:50:02.591Z,55.70
2019-06-01T17:52:34.916Z,56.20
2019-06-01T17:55:04.975Z,55.80
2019-06-01T17:57:34.425Z,55.80
2019-06-01T18:00:06.034Z,56.10
2019-06-01T18:02:35.085Z,56.10
2019-06-01T18:05:05.821Z,56.10
2019-06-01T18:07:37.137Z,56.30
2019-06-01T18:10:06.549Z,56.10
2019-06-01T18:12:35.592Z,56.40
2019-06-01T18:15:06.087Z,56.60
2019-06-01T18:17:35.288Z,56.50
2019-06-01T18:20:04.989Z,57.40
2019-06-01T18:22:34.072Z,56.90
2019-06-01T18:25:04.380Z,56.70
2019-06-01T18:27:33.702Z,56.60
2019-06-01T18:30:02.973Z,57.00
2019-06-01T18:32:32.072Z,57.10
2019-06-01T18:35:02.948Z,57.40
2019-06-01T18:37:32.132Z,57.50
2019-06-01T18:40:01.191Z,57.60
2019-06-01T18:42:31.234Z,57.70
2019-06-01T18:45:00.486Z,58.00
2019-06-01T18:47:32.721Z,58.20
2019-06-01T18:50:02.212Z,58.60
2019-06-01T18:52:31.619Z,58.80
2019-06-01T18:55:00.640Z,58.80
2019-06-01T18:57:30.397Z,59.10
2019-06-01T18:59:59.431Z,59.10
2019-06-01T19:02:29.336Z,59.40
2019-06-01T19:04:58.448Z,59.60
2019-06-01T19:07:27.635Z,59.70
2019-06-01T19:09:57.098Z,59.80
2019-06-01T19:12:26.173Z,60.30
2019-06-01T19:14:55.140Z,60.40
2019-06-01T19:17:24.584Z,60.80
2019-06-01T19:19:53.601Z,60.80
2019-06-01T19:22:22.948Z,60.90
2019-06-01T19:24:52.135Z,61.00
2019-06-01T19:27:21.307Z,61.10
2019-06-01T19:29:50.448Z,61.40
2019-06-01T19:32:21.279Z,61.30
2019-06-01T19:34:50.806Z,61.50
2019-06-01T19:37:21.702Z,61.60
2019-06-01T19:39:52.843Z,61.80
2019-06-01T19:42:21.971Z,62.20
2019-06-01T19:44:50.999Z,62.40
2019-06-01T19:47:20.061Z,62.40
2019-06-01T19:49:49.295Z,62.50
2019-06-01T19:52:19.063Z,62.70
2019-06-01T19:54:48.163Z,62.80
2019-06-01T19:57:21.413Z,63.10
2019-06-01T19:59:49.097Z,63.10
2019-06-01T20:02:28.511Z,63.30
2019-06-01T20:04:49.502Z,63.50
2019-06-01T20:07:19.295Z,63.80
2019-06-01T20:09:48.634Z,64.00
2019-06-01T20:12:20.116Z,64.30
2019-06-01T20:14:48.930Z,64.90
2019-06-01T20:17:21.726Z,65.30
2019-06-01T20:19:49.247Z,65.20
2019-06-01T20:22:19.036Z,65.60
2019-06-01T20:24:48.127Z,65.50
2019-06-01T20:27:17.639Z,65.50
2019-06-01T20:29:46.908Z,65.80
2019-06-01T20:32:16.115Z,66.10
2019-06-01T20:34:45.172Z,66.50
2019-06-01T20:37:14.272Z,66.80
2019-06-01T20:39:43.331Z,67.10
2019-06-01T20:42:22.159Z,67.50
2019-06-01T20:44:43.718Z,67.80
2019-06-01T20:47:12.809Z,68.10
2019-06-01T20:49:44.956Z,68.50
2019-06-01T20:52:14.711Z,68.60
2019-06-01T20:54:43.849Z,68.90
2019-06-01T20:57:13.308Z,69.20
2019-06-01T20:59:42.492Z,69.40
2019-06-01T21:02:11.929Z,69.70
2019-06-01T21:04:40.989Z,70.00
2019-06-01T21:07:10.010Z,70.20
2019-06-01T21:09:39.092Z,70.40
2019-06-01T21:12:08.435Z,70.90
2019-06-01T21:14:39.172Z,71.10
2019-06-01T21:17:08.400Z,71.40
2019-06-01T21:19:37.541Z,71.80
2019-06-01T21:22:06.597Z,71.90
2019-06-01T21:24:35.827Z,72.20
2019-06-01T21:27:04.930Z,72.50
2019-06-01T21:29:34.418Z,72.50
2019-06-01T21:32:03.684Z,72.90
2019-06-01T21:34:32.613Z,73.30
2019-06-01T21:37:01.996Z,73.50
2019-06-01T21:39:31.348Z,73.40
2019-06-01T21:42:00.504Z,73.70
2019-06-01T21:44:29.535Z,74.20
2019-06-01T21:46:58.560Z,74.30
2019-06-01T21:49:27.535Z,74.30
2019-06-01T21:51:56.637Z,74.00
2019-06-01T21:54:26.425Z,74.10
2019-06-01T21:56:55.773Z,74.20
2019-06-01T21:59:24.950Z,74.30
2019-06-01T22:01:54.089Z,74.20
2019-06-01T22:04:23.270Z,74.30
2019-06-01T22:06:52.883Z,74.40
2019-06-01T22:09:23.248Z,74.80
2019-06-01T22:11:52.797Z,75.30
2019-06-01T22:14:21.832Z,75.70
2019-06-01T22:16:50.924Z,76.10
2019-06-01T22:19:19.937Z,76.40
2019-06-01T22:21:49.066Z,76.80
2019-06-01T22:24:18.178Z,77.30
2019-06-01T22:26:47.709Z,77.60
2019-06-01T22:29:18.115Z,78.00
2019-06-01T22:31:47.308Z,78.70
2019-06-01T22:34:16.622Z,79.90
2019-06-01T22:36:46.195Z,80.60
2019-06-01T22:39:15.234Z,81.20
2019-06-01T22:41:44.155Z,81.70
2019-06-01T22:44:13.317Z,82.30
2019-06-01T22:46:42.264Z,83.50
2019-06-01T22:49:11.386Z,84.30
2019-06-01T22:51:40.669Z,85.20
2019-06-01T22:54:09.765Z,86.10
2019-06-01T22:56:38.849Z,87.10
2019-06-01T22:59:07.845Z,88.20
2019-06-01T23:01:36.824Z,89.00
2019-06-01T23:04:06.521Z,89.80
2019-06-01T23:06:35.584Z,90.10
2019-06-01T23:09:07.031Z,90.40
2019-06-01T23:11:36.195Z,90.90
2019-06-01T23:14:05.439Z,91.10
2019-06-01T23:16:34.541Z,91.20
2019-06-01T23:19:03.631Z,91.20
2019-06-01T23:21:32.795Z,91.40
2019-06-01T23:24:01.908Z,91.50
2019-06-01T23:26:32.518Z,91.70
2019-06-01T23:29:01.839Z,91.70
2019-06-01T23:31:31.123Z,91.90
2019-06-01T23:34:00.284Z,92.20
2019-06-01T23:36:30.672Z,92.30
2019-06-01T23:38:59.744Z,92.50
2019-06-01T23:41:28.822Z,92.60
2019-06-01T23:44:10.913Z,92.80
2019-06-01T23:46:29.179Z,93.00
2019-06-01T23:48:58.317Z,93.00
2019-06-01T23:51:27.606Z,93.10
2019-06-01T23:53:56.781Z,93.20
2019-06-01T23:56:25.733Z,93.30
2019-06-01T23:58:54.796Z,93.40
